sensor_id;sensor_type;location;lat;lon;timestamp;temperature;humidity
12957;DHT22;6543;48.836;10.092;2023-05-15T00:00:55;9.00;99.90
12957;DHT22;6543;48.836;10.092;2023-05-15T00:03:23;9.10;99.90
12957;DHT22;6543;48.836;10.092;2023-05-15T00:05:51;9.10;99.90
12957;DHT22;6543;48.836;10.092;2023-05-15T00:08:18;9.00;99.90
12957;DHT22;6543;48.836;10.092;2023-05-15T00:10:45;9.10;99.90
12957;DHT22;6543;48.836;10.092;2023-05-15T00:13:12;9.10;99.90
12957;DHT22;6543;48.836;10.092;2023-05-15T00:15:39;9.10;99.90
12957;DHT22;6543;48.836;10.092;2023-05-15T00:18:05;9.20;99.90
12957;DHT22;6543;48.836;10.092;2023-05-15T00:20:32;9.20;99.90
12957;DHT22;6543;48.836;10.092;2023-05-15T00:23:00;9.20;99.90
12957;DHT22;6543;48.836;10.092;2023-05-15T00:25:27;9.20;99.90
12957;DHT22;6543;48.836;10.092;2023-05-15T00:27:54;9.20;99.90
12957;DHT22;6543;48.836;10.092;2023-05-15T00:30:21;9.20;99.90
12957;DHT22;6543;48.836;10.092;2023-05-15T00:32:48;9.20;99.90
12957;DHT22;6543;48.836;10.092;2023-05-15T00:35:15;9.20;99.90
12957;DHT22;6543;48.836;10.092;2023-05-15T00:37:42;9.20;99.90
12957;DHT22;6543;48.836;10.092;2023-05-15T00:40:12;9.30;99.90
12957;DHT22;6543;48.836;10.092;2023-05-15T00:42:43;9.30;99.90
12957;DHT22;6543;48.836;10.092;2023-05-15T00:45:12;9.30;99.90
12957;DHT22;6543;48.836;10.092;2023-05-15T00:47:39;9.30;99.90
12957;DHT22;6543;48.836;10.092;2023-05-15T00:50:08;9.30;99.90
12957;DHT22;6543;48.836;10.092;2023-05-15T00:52:35;9.40;99.90
12957;DHT22;6543;48.836;10.092;2023-05-15T00:55:02;9.30;99.90
12957;DHT22;6543;48.836;10.092;2023-05-15T00:57:31;9.30;99.90
12957;DHT22;6543;48.836;10.092;2023-05-15T01:00:02;9.30;99.90
12957;DHT22;6543;48.836;10.092;2023-05-15T01:02:31;9.30;99.90
12957;DHT22;6543;48.836;10.092;2023-05-15T01:04:58;9.40;99.90
12957;DHT22;6543;48.836;10.092;2023-05-15T01:07:25;9.40;99.90
12957;DHT22;6543;48.836;10.092;2023-05-15T01:09:52;9.40;99.90
12957;DHT22;6543;48.836;10.092;2023-05-15T01:12:22;9.40;99.90
12957;DHT22;6543;48.836;10.092;2023-05-15T01:14:52;9.50;99.90
12957;DHT22;6543;48.836;10.092;2023-05-15T01:17:19;9.50;99.90
12957;DHT22;6543;48.836;10.092;2023-05-15T01:19:49;9.50;99.90
12957;DHT22;6543;48.836;10.092;2023-05-15T01:22:43;9.50;99.90
12957;DHT22;6543;48.836;10.092;2023-05-15T01:25:53;9.40;99.90
12957;DHT22;6543;48.836;10.092;2023-05-15T01:28:30;9.40;99.90
12957;DHT22;6543;48.836;10.092;2023-05-15T01:30:58;9.30;99.90
12957;DHT22;6543;48.836;10.092;2023-05-15T01:33:29;9.30;99.90
12957;DHT22;6543;48.836;10.092;2023-05-15T01:36:05;9.30;99.90
12957;DHT22;6543;48.836;10.092;2023-05-15T01:38:37;9.30;99.90
12957;DHT22;6543;48.836;10.092;2023-05-15T01:41:09;9.30;99.90
12957;DHT22;6543;48.836;10.092;2023-05-15T01:43:43;9.30;99.90
12957;DHT22;6543;48.836;10.092;2023-05-15T01:46:13;9.30;99.90
12957;DHT22;6543;48.836;10.092;2023-05-15T01:48:40;9.30;99.90
12957;DHT22;6543;48.836;10.092;2023-05-15T01:51:10;9.40;99.90
12957;DHT22;6543;48.836;10.092;2023-05-15T01:53:39;9.40;99.90
12957;DHT22;6543;48.836;10.092;2023-05-15T01:56:07;9.40;99.90
12957;DHT22;6543;48.836;10.092;2023-05-15T01:58:36;9.40;99.90
12957;DHT22;6543;48.836;10.092;2023-05-15T02:01:05;9.40;99.90
12957;DHT22;6543;48.836;10.092;2023-05-15T02:03:32;9.50;99.90
12957;DHT22;6543;48.836;10.092;2023-05-15T02:06:00;9.50;99.90
12957;DHT22;6543;48.836;10.092;2023-05-15T02:08:28;9.50;99.90
12957;DHT22;6543;48.836;10.092;2023-05-15T02:10:57;9.50;99.90
12957;DHT22;6543;48.836;10.092;2023-05-15T02:13:25;9.40;99.90
12957;DHT22;6543;48.836;10.092;2023-05-15T02:15:52;9.40;99.90
12957;DHT22;6543;48.836;10.092;2023-05-15T02:18:21;9.40;99.90
12957;DHT22;6543;48.836;10.092;2023-05-15T02:20:48;9.40;99.90
12957;DHT22;6543;48.836;10.092;2023-05-15T02:23:15;9.30;99.90
12957;DHT22;6543;48.836;10.092;2023-05-15T02:25:51;9.30;99.90
12957;DHT22;6543;48.836;10.092;2023-05-15T02:28:25;9.40;99.90
12957;DHT22;6543;48.836;10.092;2023-05-15T02:30:56;9.30;99.90
12957;DHT22;6543;48.836;10.092;2023-05-15T02:33:28;9.30;99.90
12957;DHT22;6543;48.836;10.092;2023-05-15T02:36:00;9.30;99.90
12957;DHT22;6543;48.836;10.092;2023-05-15T02:38:36;9.30;99.90
12957;DHT22;6543;48.836;10.092;2023-05-15T02:41:05;9.30;99.90
12957;DHT22;6543;48.836;10.092;2023-05-15T02:43:34;9.30;99.90
12957;DHT22;6543;48.836;10.092;2023-05-15T02:46:02;9.30;99.90
12957;DHT22;6543;48.836;10.092;2023-05-15T02:48:30;9.30;99.90
12957;DHT22;6543;48.836;10.092;2023-05-15T02:50:57;9.30;99.90
12957;DHT22;6543;48.836;10.092;2023-05-15T02:53:24;9.30;99.90
12957;DHT22;6543;48.836;10.092;2023-05-15T02:55:51;9.30;99.90
12957;DHT22;6543;48.836;10.092;2023-05-15T02:58:18;9.20;99.90
12957;DHT22;6543;48.836;10.092;2023-05-15T03:00:45;9.20;99.90
12957;DHT22;6543;48.836;10.092;2023-05-15T03:03:11;9.20;99.90
12957;DHT22;6543;48.836;10.092;2023-05-15T03:05:40;9.20;99.90
12957;DHT22;6543;48.836;10.092;2023-05-15T03:08:06;9.00;99.90
12957;DHT22;6543;48.836;10.092;2023-05-15T03:10:33;9.10;99.90
12957;DHT22;6543;48.836;10.092;2023-05-15T03:13:00;9.00;99.90
12957;DHT22;6543;48.836;10.092;2023-05-15T03:15:28;9.00;99.90
12957;DHT22;6543;48.836;10.092;2023-05-15T03:17:54;8.90;99.90
12957;DHT22;6543;48.836;10.092;2023-05-15T03:20:21;9.10;99.90
12957;DHT22;6543;48.836;10.092;2023-05-15T03:22:49;9.00;99.90
12957;DHT22;6543;48.836;10.092;2023-05-15T03:25:16;8.90;99.90
12957;DHT22;6543;48.836;10.092;2023-05-15T03:27:43;8.90;99.90
12957;DHT22;6543;48.836;10.092;2023-05-15T03:30:10;9.00;99.90
12957;DHT22;6543;48.836;10.092;2023-05-15T03:32:37;9.10;99.90
12957;DHT22;6543;48.836;10.092;2023-05-15T03:35:04;9.10;99.90
12957;DHT22;6543;48.836;10.092;2023-05-15T03:37:31;9.20;99.90
12957;DHT22;6543;48.836;10.092;2023-05-15T03:39:59;9.20;99.90
12957;DHT22;6543;48.836;10.092;2023-05-15T03:42:26;9.20;99.90
12957;DHT22;6543;48.836;10.092;2023-05-15T03:44:53;9.10;99.90
12957;DHT22;6543;48.836;10.092;2023-05-15T03:47:20;9.10;99.90
12957;DHT22;6543;48.836;10.092;2023-05-15T03:49:47;9.10;99.90
12957;DHT22;6543;48.836;10.092;2023-05-15T03:52:14;9.10;99.90
12957;DHT22;6543;48.836;10.092;2023-05-15T03:54:41;9.10;99.90
12957;DHT22;6543;48.836;10.092;2023-05-15T03:57:09;9.20;99.90
12957;DHT22;6543;48.836;10.092;2023-05-15T04:02:12;9.20;99.90
12957;DHT22;6543;48.836;10.092;2023-05-15T04:04:41;9.10;99.90
12957;DHT22;6543;48.836;10.092;2023-05-15T04:07:09;10.00;99.90
12957;DHT22;6543;48.836;10.092;2023-05-15T04:09:36;9.10;99.90
12957;DHT22;6543;48.836;10.092;2023-05-15T04:12:03;9.70;99.90
12957;DHT22;6543;48.836;10.092;2023-05-15T04:14:32;9.10;99.90
12957;DHT22;6543;48.836;10.092;2023-05-15T04:16:59;9.90;99.90
12957;DHT22;6543;48.836;10.092;2023-05-15T04:19:27;9.10;99.90
12957;DHT22;6543;48.836;10.092;2023-05-15T04:21:54;9.10;99.90
12957;DHT22;6543;48.836;10.092;2023-05-15T04:24:21;9.10;99.90
12957;DHT22;6543;48.836;10.092;2023-05-15T04:26:47;9.80;99.90
12957;DHT22;6543;48.836;10.092;2023-05-15T04:29:18;9.10;99.90
12957;DHT22;6543;48.836;10.092;2023-05-15T04:31:46;9.10;99.90
12957;DHT22;6543;48.836;10.092;2023-05-15T04:34:13;9.20;99.90
12957;DHT22;6543;48.836;10.092;2023-05-15T04:36:40;10.50;99.90
12957;DHT22;6543;48.836;10.092;2023-05-15T04:39:07;9.20;99.90
12957;DHT22;6543;48.836;10.092;2023-05-15T04:41:34;9.20;99.90
12957;DHT22;6543;48.836;10.092;2023-05-15T04:44:01;9.20;99.90
12957;DHT22;6543;48.836;10.092;2023-05-15T04:46:28;10.50;99.90
12957;DHT22;6543;48.836;10.092;2023-05-15T04:49:00;10.40;99.90
12957;DHT22;6543;48.836;10.092;2023-05-15T04:51:27;10.30;99.90
12957;DHT22;6543;48.836;10.092;2023-05-15T04:53:54;10.70;99.90
12957;DHT22;6543;48.836;10.092;2023-05-15T04:56:21;9.70;99.90
12957;DHT22;6543;48.836;10.092;2023-05-15T04:58:48;9.10;99.90
12957;DHT22;6543;48.836;10.092;2023-05-15T05:01:15;9.80;99.90
12957;DHT22;6543;48.836;10.092;2023-05-15T05:03:42;9.80;99.90
12957;DHT22;6543;48.836;10.092;2023-05-15T05:06:10;9.90;99.90
12957;DHT22;6543;48.836;10.092;2023-05-15T05:08:37;9.90;99.90
12957;DHT22;6543;48.836;10.092;2023-05-15T05:11:04;10.00;99.90
12957;DHT22;6543;48.836;10.092;2023-05-15T05:13:31;10.10;99.90
12957;DHT22;6543;48.836;10.092;2023-05-15T05:15:57;10.20;99.90
12957;DHT22;6543;48.836;10.092;2023-05-15T05:18:24;10.30;99.90
12957;DHT22;6543;48.836;10.092;2023-05-15T05:20:58;10.40;99.90
12957;DHT22;6543;48.836;10.092;2023-05-15T05:23:26;10.30;99.90
12957;DHT22;6543;48.836;10.092;2023-05-15T05:25:53;10.30;99.90
12957;DHT22;6543;48.836;10.092;2023-05-15T05:28:20;10.30;99.90
12957;DHT22;6543;48.836;10.092;2023-05-15T05:30:47;10.40;99.90
12957;DHT22;6543;48.836;10.092;2023-05-15T05:33:14;10.50;99.90
12957;DHT22;6543;48.836;10.092;2023-05-15T05:35:41;10.70;99.90
12957;DHT22;6543;48.836;10.092;2023-05-15T05:38:08;10.90;99.90
12957;DHT22;6543;48.836;10.092;2023-05-15T05:40:36;11.10;99.90
12957;DHT22;6543;48.836;10.092;2023-05-15T05:43:05;11.20;99.90
12957;DHT22;6543;48.836;10.092;2023-05-15T05:45:31;11.50;99.90
12957;DHT22;6543;48.836;10.092;2023-05-15T05:47:58;12.30;99.90
12957;DHT22;6543;48.836;10.092;2023-05-15T05:50:25;12.20;99.90
12957;DHT22;6543;48.836;10.092;2023-05-15T05:52:52;12.30;99.90
12957;DHT22;6543;48.836;10.092;2023-05-15T05:55:19;12.30;99.90
12957;DHT22;6543;48.836;10.092;2023-05-15T05:57:47;12.30;99.90
12957;DHT22;6543;48.836;10.092;2023-05-15T06:00:15;12.20;99.90
12957;DHT22;6543;48.836;10.092;2023-05-15T06:02:41;12.00;99.90
12957;DHT22;6543;48.836;10.092;2023-05-15T06:05:08;12.10;99.90
12957;DHT22;6543;48.836;10.092;2023-05-15T06:07:36;12.30;99.90
12957;DHT22;6543;48.836;10.092;2023-05-15T06:10:03;12.30;99.90
12957;DHT22;6543;48.836;10.092;2023-05-15T06:12:31;11.90;99.90
12957;DHT22;6543;48.836;10.092;2023-05-15T06:15:00;12.00;99.90
12957;DHT22;6543;48.836;10.092;2023-05-15T06:17:27;12.10;99.90
12957;DHT22;6543;48.836;10.092;2023-05-15T06:19:53;12.30;99.90
12957;DHT22;6543;48.836;10.092;2023-05-15T06:22:20;12.40;99.90
12957;DHT22;6543;48.836;10.092;2023-05-15T06:24:47;12.30;99.90
12957;DHT22;6543;48.836;10.092;2023-05-15T06:27:14;12.50;99.90
12957;DHT22;6543;48.836;10.092;2023-05-15T06:29:41;12.90;99.90
12957;DHT22;6543;48.836;10.092;2023-05-15T06:32:09;13.10;99.90
12957;DHT22;6543;48.836;10.092;2023-05-15T06:34:36;13.40;99.90
12957;DHT22;6543;48.836;10.092;2023-05-15T06:37:03;13.30;99.90
12957;DHT22;6543;48.836;10.092;2023-05-15T06:39:30;13.30;99.90
12957;DHT22;6543;48.836;10.092;2023-05-15T06:41:57;13.40;99.90
12957;DHT22;6543;48.836;10.092;2023-05-15T06:44:25;14.70;99.90
12957;DHT22;6543;48.836;10.092;2023-05-15T06:46:52;13.40;99.90
12957;DHT22;6543;48.836;10.092;2023-05-15T06:49:20;13.50;99.90
12957;DHT22;6543;48.836;10.092;2023-05-15T06:51:47;13.70;99.90
12957;DHT22;6543;48.836;10.092;2023-05-15T06:54:14;13.50;99.90
12957;DHT22;6543;48.836;10.092;2023-05-15T06:56:41;13.70;99.90
12957;DHT22;6543;48.836;10.092;2023-05-15T06:59:08;13.50;99.90
12957;DHT22;6543;48.836;10.092;2023-05-15T07:01:35;13.50;99.90
12957;DHT22;6543;48.836;10.092;2023-05-15T07:04:02;13.40;99.90
12957;DHT22;6543;48.836;10.092;2023-05-15T07:06:31;13.10;99.90
12957;DHT22;6543;48.836;10.092;2023-05-15T07:08:58;13.10;99.90
12957;DHT22;6543;48.836;10.092;2023-05-15T07:11:25;13.30;99.90
12957;DHT22;6543;48.836;10.092;2023-05-15T07:13:53;13.50;99.90
12957;DHT22;6543;48.836;10.092;2023-05-15T07:16:19;13.40;99.90
12957;DHT22;6543;48.836;10.092;2023-05-15T07:18:46;13.60;99.90
12957;DHT22;6543;48.836;10.092;2023-05-15T07:21:13;13.50;99.90
12957;DHT22;6543;48.836;10.092;2023-05-15T07:23:41;13.30;99.90
12957;DHT22;6543;48.836;10.092;2023-05-15T07:26:08;13.50;99.90
12957;DHT22;6543;48.836;10.092;2023-05-15T07:28:35;13.50;99.90
12957;DHT22;6543;48.836;10.092;2023-05-15T07:31:02;13.40;99.90
12957;DHT22;6543;48.836;10.092;2023-05-15T07:33:29;13.60;99.90
12957;DHT22;6543;48.836;10.092;2023-05-15T07:35:56;13.60;99.90
12957;DHT22;6543;48.836;10.092;2023-05-15T07:38:22;13.60;99.90
12957;DHT22;6543;48.836;10.092;2023-05-15T07:40:50;13.90;99.90
12957;DHT22;6543;48.836;10.092;2023-05-15T07:43:17;14.20;99.90
12957;DHT22;6543;48.836;10.092;2023-05-15T07:45:44;14.30;99.90
12957;DHT22;6543;48.836;10.092;2023-05-15T07:48:15;14.30;99.90
12957;DHT22;6543;48.836;10.092;2023-05-15T07:50:44;14.20;99.90
12957;DHT22;6543;48.836;10.092;2023-05-15T07:53:11;14.40;99.90
12957;DHT22;6543;48.836;10.092;2023-05-15T07:55:39;14.40;99.90
12957;DHT22;6543;48.836;10.092;2023-05-15T07:58:07;14.80;99.90
12957;DHT22;6543;48.836;10.092;2023-05-15T08:00:34;14.70;99.90
12957;DHT22;6543;48.836;10.092;2023-05-15T08:03:01;15.00;99.90
12957;DHT22;6543;48.836;10.092;2023-05-15T08:05:28;15.20;99.90
12957;DHT22;6543;48.836;10.092;2023-05-15T08:07:55;15.00;99.90
12957;DHT22;6543;48.836;10.092;2023-05-15T08:10:23;15.40;99.90
12957;DHT22;6543;48.836;10.092;2023-05-15T08:12:49;15.50;99.90
12957;DHT22;6543;48.836;10.092;2023-05-15T08:15:18;15.90;99.90
12957;DHT22;6543;48.836;10.092;2023-05-15T08:17:44;15.60;99.90
12957;DHT22;6543;48.836;10.092;2023-05-15T08:20:12;15.90;99.90
12957;DHT22;6543;48.836;10.092;2023-05-15T08:22:39;15.90;99.90
12957;DHT22;6543;48.836;10.092;2023-05-15T08:25:06;16.20;99.90
12957;DHT22;6543;48.836;10.092;2023-05-15T08:27:33;16.40;99.90
12957;DHT22;6543;48.836;10.092;2023-05-15T08:30:00;16.10;99.90
12957;DHT22;6543;48.836;10.092;2023-05-15T08:32:29;16.00;99.90
12957;DHT22;6543;48.836;10.092;2023-05-15T08:34:56;16.20;99.90
12957;DHT22;6543;48.836;10.092;2023-05-15T08:37:23;15.90;99.90
12957;DHT22;6543;48.836;10.092;2023-05-15T08:39:50;15.60;99.90
12957;DHT22;6543;48.836;10.092;2023-05-15T08:42:20;15.60;99.90
12957;DHT22;6543;48.836;10.092;2023-05-15T08:44:47;15.70;99.90
12957;DHT22;6543;48.836;10.092;2023-05-15T08:47:15;15.30;99.90
12957;DHT22;6543;48.836;10.092;2023-05-15T08:49:50;15.30;99.90
12957;DHT22;6543;48.836;10.092;2023-05-15T08:52:17;15.10;99.90
12957;DHT22;6543;48.836;10.092;2023-05-15T08:54:44;15.30;99.90
12957;DHT22;6543;48.836;10.092;2023-05-15T08:57:13;15.40;99.90
12957;DHT22;6543;48.836;10.092;2023-05-15T08:59:41;15.40;99.90
12957;DHT22;6543;48.836;10.092;2023-05-15T09:02:07;15.20;99.90
12957;DHT22;6543;48.836;10.092;2023-05-15T09:04:34;15.60;99.90
12957;DHT22;6543;48.836;10.092;2023-05-15T09:07:04;15.90;99.90
12957;DHT22;6543;48.836;10.092;2023-05-15T09:09:32;16.30;99.90
12957;DHT22;6543;48.836;10.092;2023-05-15T09:11:59;16.60;99.90
12957;DHT22;6543;48.836;10.092;2023-05-15T09:14:27;16.30;99.90
12957;DHT22;6543;48.836;10.092;2023-05-15T09:16:53;16.90;99.90
12957;DHT22;6543;48.836;10.092;2023-05-15T09:19:21;17.10;99.90
12957;DHT22;6543;48.836;10.092;2023-05-15T09:21:48;17.80;99.90
12957;DHT22;6543;48.836;10.092;2023-05-15T09:24:18;17.70;99.90
12957;DHT22;6543;48.836;10.092;2023-05-15T09:26:47;17.40;99.90
12957;DHT22;6543;48.836;10.092;2023-05-15T09:29:26;17.60;99.90
12957;DHT22;6543;48.836;10.092;2023-05-15T09:31:53;17.00;99.90
12957;DHT22;6543;48.836;10.092;2023-05-15T09:34:28;16.80;99.90
12957;DHT22;6543;48.836;10.092;2023-05-15T09:36:55;17.20;99.90
12957;DHT22;6543;48.836;10.092;2023-05-15T09:39:24;17.00;99.90
12957;DHT22;6543;48.836;10.092;2023-05-15T09:41:56;16.70;99.90
12957;DHT22;6543;48.836;10.092;2023-05-15T09:44:31;16.40;99.90
12957;DHT22;6543;48.836;10.092;2023-05-15T09:46:58;15.90;99.90
12957;DHT22;6543;48.836;10.092;2023-05-15T09:49:27;15.80;99.90
12957;DHT22;6543;48.836;10.092;2023-05-15T09:51:57;15.60;99.90
12957;DHT22;6543;48.836;10.092;2023-05-15T09:54:26;16.70;99.90
12957;DHT22;6543;48.836;10.092;2023-05-15T09:56:54;16.00;99.90
12957;DHT22;6543;48.836;10.092;2023-05-15T09:59:23;15.80;99.90
12957;DHT22;6543;48.836;10.092;2023-05-15T10:01:51;15.90;99.90
12957;DHT22;6543;48.836;10.092;2023-05-15T10:04:18;16.20;99.90
12957;DHT22;6543;48.836;10.092;2023-05-15T10:06:51;16.40;99.90
12957;DHT22;6543;48.836;10.092;2023-05-15T10:09:21;16.60;99.90
12957;DHT22;6543;48.836;10.092;2023-05-15T10:11:50;16.60;99.90
12957;DHT22;6543;48.836;10.092;2023-05-15T10:14:19;16.70;99.90
12957;DHT22;6543;48.836;10.092;2023-05-15T10:16:47;16.90;99.90
12957;DHT22;6543;48.836;10.092;2023-05-15T10:19:14;17.00;99.90
12957;DHT22;6543;48.836;10.092;2023-05-15T10:21:43;17.30;99.90
12957;DHT22;6543;48.836;10.092;2023-05-15T10:24:10;17.60;99.90
12957;DHT22;6543;48.836;10.092;2023-05-15T10:26:39;18.00;99.90
12957;DHT22;6543;48.836;10.092;2023-05-15T10:29:08;18.80;99.90
12957;DHT22;6543;48.836;10.092;2023-05-15T10:31:35;18.70;99.90
12957;DHT22;6543;48.836;10.092;2023-05-15T10:34:03;19.00;99.90
12957;DHT22;6543;48.836;10.092;2023-05-15T10:36:31;18.30;99.90
12957;DHT22;6543;48.836;10.092;2023-05-15T10:39:00;18.20;99.90
12957;DHT22;6543;48.836;10.092;2023-05-15T10:41:28;17.90;99.90
12957;DHT22;6543;48.836;10.092;2023-05-15T10:43:57;17.70;99.90
12957;DHT22;6543;48.836;10.092;2023-05-15T10:46:26;17.40;99.90
12957;DHT22;6543;48.836;10.092;2023-05-15T10:48:54;17.20;99.90
12957;DHT22;6543;48.836;10.092;2023-05-15T10:51:25;17.50;99.90
12957;DHT22;6543;48.836;10.092;2023-05-15T10:53:53;17.90;99.90
12957;DHT22;6543;48.836;10.092;2023-05-15T10:56:25;18.10;99.90
12957;DHT22;6543;48.836;10.092;2023-05-15T10:58:52;18.80;99.90
12957;DHT22;6543;48.836;10.092;2023-05-15T11:01:28;18.80;99.90
12957;DHT22;6543;48.836;10.092;2023-05-15T11:04:07;18.80;99.90
12957;DHT22;6543;48.836;10.092;2023-05-15T11:06:35;18.40;99.90
12957;DHT22;6543;48.836;10.092;2023-05-15T11:09:37;19.10;99.90
12957;DHT22;6543;48.836;10.092;2023-05-15T11:12:06;17.80;99.90
12957;DHT22;6543;48.836;10.092;2023-05-15T11:14:38;18.80;99.90
12957;DHT22;6543;48.836;10.092;2023-05-15T11:17:09;18.00;99.90
12957;DHT22;6543;48.836;10.092;2023-05-15T11:22:28;18.20;99.90
12957;DHT22;6543;48.836;10.092;2023-05-15T11:24:58;17.90;99.90
12957;DHT22;6543;48.836;10.092;2023-05-15T11:27:28;17.60;99.90
12957;DHT22;6543;48.836;10.092;2023-05-15T11:30:10;17.80;99.90
12957;DHT22;6543;48.836;10.092;2023-05-15T11:32:48;18.10;99.90
12957;DHT22;6543;48.836;10.092;2023-05-15T11:35:24;18.60;99.90
12957;DHT22;6543;48.836;10.092;2023-05-15T11:37:53;19.10;99.90
12957;DHT22;6543;48.836;10.092;2023-05-15T11:40:23;19.50;99.90
12957;DHT22;6543;48.836;10.092;2023-05-15T11:43:05;19.40;99.90
12957;DHT22;6543;48.836;10.092;2023-05-15T11:45:34;19.30;99.90
12957;DHT22;6543;48.836;10.092;2023-05-15T11:48:04;19.70;99.90
12957;DHT22;6543;48.836;10.092;2023-05-15T11:50:32;20.10;99.90
12957;DHT22;6543;48.836;10.092;2023-05-15T11:53:04;19.90;99.90
12957;DHT22;6543;48.836;10.092;2023-05-15T11:55:32;19.10;99.90
12957;DHT22;6543;48.836;10.092;2023-05-15T11:57:59;17.80;99.90
12957;DHT22;6543;48.836;10.092;2023-05-15T12:00:27;15.10;99.90
12957;DHT22;6543;48.836;10.092;2023-05-15T12:02:53;14.20;99.90
12957;DHT22;6543;48.836;10.092;2023-05-15T12:05:23;13.00;99.90
12957;DHT22;6543;48.836;10.092;2023-05-15T12:07:50;12.80;99.90
12957;DHT22;6543;48.836;10.092;2023-05-15T12:10:17;12.60;99.90
12957;DHT22;6543;48.836;10.092;2023-05-15T12:12:44;13.10;99.90
12957;DHT22;6543;48.836;10.092;2023-05-15T12:15:15;13.70;99.90
12957;DHT22;6543;48.836;10.092;2023-05-15T12:17:43;14.00;99.90
12957;DHT22;6543;48.836;10.092;2023-05-15T12:20:15;14.00;99.90
12957;DHT22;6543;48.836;10.092;2023-05-15T12:22:43;14.10;99.90
12957;DHT22;6543;48.836;10.092;2023-05-15T12:25:11;15.00;99.90
12957;DHT22;6543;48.836;10.092;2023-05-15T12:27:38;13.90;99.90
12957;DHT22;6543;48.836;10.092;2023-05-15T12:30:07;14.10;99.90
12957;DHT22;6543;48.836;10.092;2023-05-15T12:32:35;14.30;99.90
12957;DHT22;6543;48.836;10.092;2023-05-15T12:35:04;14.50;99.90
12957;DHT22;6543;48.836;10.092;2023-05-15T12:37:31;14.70;99.90
12957;DHT22;6543;48.836;10.092;2023-05-15T12:40:01;15.60;99.90
12957;DHT22;6543;48.836;10.092;2023-05-15T12:42:38;14.80;99.90
12957;DHT22;6543;48.836;10.092;2023-05-15T12:45:11;14.50;99.90
12957;DHT22;6543;48.836;10.092;2023-05-15T12:47:39;14.40;99.90
12957;DHT22;6543;48.836;10.092;2023-05-15T12:50:14;15.30;99.90
12957;DHT22;6543;48.836;10.092;2023-05-15T12:52:52;14.70;99.90
12957;DHT22;6543;48.836;10.092;2023-05-15T12:55:24;14.90;99.90
12957;DHT22;6543;48.836;10.092;2023-05-15T12:57:51;15.00;99.90
12957;DHT22;6543;48.836;10.092;2023-05-15T13:00:20;15.30;99.90
12957;DHT22;6543;48.836;10.092;2023-05-15T13:02:48;15.40;99.90
12957;DHT22;6543;48.836;10.092;2023-05-15T13:05:18;16.00;99.90
12957;DHT22;6543;48.836;10.092;2023-05-15T13:07:47;15.60;99.90
12957;DHT22;6543;48.836;10.092;2023-05-15T13:10:14;16.40;99.90
12957;DHT22;6543;48.836;10.092;2023-05-15T13:12:45;16.80;99.90
12957;DHT22;6543;48.836;10.092;2023-05-15T13:15:25;16.90;99.90
12957;DHT22;6543;48.836;10.092;2023-05-15T13:17:58;16.80;99.90
12957;DHT22;6543;48.836;10.092;2023-05-15T13:20:27;16.60;99.90
12957;DHT22;6543;48.836;10.092;2023-05-15T13:22:54;16.80;99.90
12957;DHT22;6543;48.836;10.092;2023-05-15T13:25:21;16.70;99.90
12957;DHT22;6543;48.836;10.092;2023-05-15T13:27:52;15.10;99.90
12957;DHT22;6543;48.836;10.092;2023-05-15T13:30:19;17.50;99.90
12957;DHT22;6543;48.836;10.092;2023-05-15T13:32:46;16.50;99.90
12957;DHT22;6543;48.836;10.092;2023-05-15T13:35:13;16.70;99.90
12957;DHT22;6543;48.836;10.092;2023-05-15T13:37:43;16.80;99.90
12957;DHT22;6543;48.836;10.092;2023-05-15T13:40:11;17.00;99.90
12957;DHT22;6543;48.836;10.092;2023-05-15T13:42:39;17.20;99.90
12957;DHT22;6543;48.836;10.092;2023-05-15T13:45:10;17.10;99.90
12957;DHT22;6543;48.836;10.092;2023-05-15T13:47:38;17.30;99.90
12957;DHT22;6543;48.836;10.092;2023-05-15T13:50:06;18.30;99.90
12957;DHT22;6543;48.836;10.092;2023-05-15T13:52:33;17.50;99.90
12957;DHT22;6543;48.836;10.092;2023-05-15T13:55:03;17.50;99.90
12957;DHT22;6543;48.836;10.092;2023-05-15T13:57:30;17.70;99.90
12957;DHT22;6543;48.836;10.092;2023-05-15T13:59:57;18.00;99.90
12957;DHT22;6543;48.836;10.092;2023-05-15T14:02:26;17.90;99.90
12957;DHT22;6543;48.836;10.092;2023-05-15T14:04:53;17.70;99.90
12957;DHT22;6543;48.836;10.092;2023-05-15T14:07:21;17.60;99.90
12957;DHT22;6543;48.836;10.092;2023-05-15T14:09:48;17.70;99.90
12957;DHT22;6543;48.836;10.092;2023-05-15T14:12:16;17.90;99.90
12957;DHT22;6543;48.836;10.092;2023-05-15T14:14:44;18.10;99.90
12957;DHT22;6543;48.836;10.092;2023-05-15T14:17:12;18.10;99.90
12957;DHT22;6543;48.836;10.092;2023-05-15T14:19:40;18.90;99.90
12957;DHT22;6543;48.836;10.092;2023-05-15T14:22:07;18.50;99.90
12957;DHT22;6543;48.836;10.092;2023-05-15T14:24:34;18.10;99.90
12957;DHT22;6543;48.836;10.092;2023-05-15T14:27:01;18.60;99.90
12957;DHT22;6543;48.836;10.092;2023-05-15T14:29:28;18.70;99.90
12957;DHT22;6543;48.836;10.092;2023-05-15T14:31:57;18.20;99.90
12957;DHT22;6543;48.836;10.092;2023-05-15T14:34:24;17.60;99.90
12957;DHT22;6543;48.836;10.092;2023-05-15T14:36:53;17.00;99.90
12957;DHT22;6543;48.836;10.092;2023-05-15T14:39:20;16.80;99.90
12957;DHT22;6543;48.836;10.092;2023-05-15T14:41:53;16.70;99.90
12957;DHT22;6543;48.836;10.092;2023-05-15T14:44:33;16.70;99.90
12957;DHT22;6543;48.836;10.092;2023-05-15T14:47:07;16.70;99.90
12957;DHT22;6543;48.836;10.092;2023-05-15T14:49:35;17.50;99.90
12957;DHT22;6543;48.836;10.092;2023-05-15T14:52:08;17.30;99.90
12957;DHT22;6543;48.836;10.092;2023-05-15T14:54:36;17.90;99.90
12957;DHT22;6543;48.836;10.092;2023-05-15T14:57:03;17.60;99.90
12957;DHT22;6543;48.836;10.092;2023-05-15T14:59:30;17.90;99.90
12957;DHT22;6543;48.836;10.092;2023-05-15T15:01:57;19.10;99.90
12957;DHT22;6543;48.836;10.092;2023-05-15T15:04:24;19.10;99.90
12957;DHT22;6543;48.836;10.092;2023-05-15T15:06:53;19.20;99.90
12957;DHT22;6543;48.836;10.092;2023-05-15T15:09:23;19.60;99.90
12957;DHT22;6543;48.836;10.092;2023-05-15T15:11:51;19.80;99.90
12957;DHT22;6543;48.836;10.092;2023-05-15T15:14:18;20.20;99.90
12957;DHT22;6543;48.836;10.092;2023-05-15T15:16:45;20.40;99.90
12957;DHT22;6543;48.836;10.092;2023-05-15T15:19:13;20.60;99.90
12957;DHT22;6543;48.836;10.092;2023-05-15T15:21:40;19.60;99.90
12957;DHT22;6543;48.836;10.092;2023-05-15T15:24:08;21.40;99.90
12957;DHT22;6543;48.836;10.092;2023-05-15T15:26:38;21.40;99.90
12957;DHT22;6543;48.836;10.092;2023-05-15T15:29:07;20.80;99.90
12957;DHT22;6543;48.836;10.092;2023-05-15T15:31:37;21.30;99.90
12957;DHT22;6543;48.836;10.092;2023-05-15T15:34:06;21.50;99.90
12957;DHT22;6543;48.836;10.092;2023-05-15T15:36:35;21.30;99.90
12957;DHT22;6543;48.836;10.092;2023-05-15T15:39:04;21.30;99.90
12957;DHT22;6543;48.836;10.092;2023-05-15T15:41:41;20.70;99.90
12957;DHT22;6543;48.836;10.092;2023-05-15T15:44:08;21.00;99.90
12957;DHT22;6543;48.836;10.092;2023-05-15T15:46:35;19.70;99.90
12957;DHT22;6543;48.836;10.092;2023-05-15T15:49:03;19.80;99.90